MMZC/ZCL METAR and TAF weather

Enter ICAO airport designator
Station Type Date Time Source
MMZC METAR 2021/07/29 00:40 UTC NOAA

MMZC 290040Z 11015KT 10SM BKN040 BKN200 20/12 A3022 RMK 8/508 DSNT RA LTGCG W


Station Type Date Time Source
MMZC Decoded METAR 2021/07/29 00:40 UTC NOAA

Zacatecas Airport, Mexico (MMZC) 22-54N 102-41W
Jul 28, 2021 - 08:40 PM EDT / 2021.07.29 0040 UTC
Wind: from the ESE (110 degrees) at 17 MPH (15 KT):0
Visibility: 10 mile(s):0
Sky conditions: mostly cloudy
Weather: Lightning observed
Temperature: 68 F (20 C)
Dew Point: 53 F (12 C)
Relative Humidity: 59%
Pressure (altimeter): 30.22 in. Hg (1023 hPa)
ob: MMZC 290040Z 11015KT 10SM BKN040 BKN200 20/12 A3022 RMK 8/508 DSNT RA LTGCG W
cycle: 0

Station Type Date Time Source
MMZC TAF 2021/07/28 18:27 UTC NOAA

TAF MMZC 281726Z 2818/2924 06010KT P6SM BKN030 BKN250 TX26/2822Z TN13/2912Z
FM290800 09005KT P6SM SCT030 SCT080
FM291700 12012KT P6SM SCT030 BKN250

Example: see airport list